Station: Portable Rfsnsw59  

  Atmospheric Gas Attenuation - ITU Rec 676-11   ----------------- dB/100km -----------------
Date Time Temp RH % AH g/m3 Dew Point Wind Direction Speed kph Gust kph Barometer mB Rainfall Since 9am 24GHz 47GHz 76GHz 122GHz 134GHz 241GHz
08/05 12:20 8.9 89 7.8 7.2 7 9 1013.1 0.6 18.1 26.0 39.0 102.2 93.7 321.4
08/05 12:10 9 88 7.76 7.2 7 9 1013.1 0.6 18.0 25.9 38.7 101.6 93.0 319.1
08/05 12:00 8.8 91 7.92 7.4 7 11 1013.1 0.6 18.4 26.2 39.5 103.6 95.5 327.6
08/05 11:50 9 88 7.76 7.1 6 9 1013.1 0.6 18.0 25.9 38.7 101.6 93.0 319.1
08/05 11:40 9 90 7.94 7.5 6 9 1013.1 0.6 18.4 26.2 39.5 103.6 95.5 327.8
08/05 11:30 9.1 88 7.81 7.2 6 9 1013.1 0.6 18.1 26.0 38.9 102.0 93.6 321.1
08/05 11:20 8.9 90 7.89 7.4 7 9 1013.1 0.6 18.3 26.2 39.3 103.2 95.0 325.8
08/05 11:10 8.9 88 7.71 7.1 6 9 1013.1 0.6 17.9 25.9 38.6 101.2 92.5 317.1
08/05 11:00 8.6 91 7.82 7.3 7 9 1013.1 0.6 18.2 26.1 39.2 102.8 94.4 323.6
08/05 10:50 8.3 90 7.59 6.7 6 9 1013.1 0.6 17.7 25.8 38.4 100.6 91.6 313.8
08/05 10:40 7.8 91 7.43 6.4 7 9 1013.1 0.6 17.4 25.7 38.0 99.5 90.0 308.1
08/05 10:30 7.8 90 7.35 6.3 6 7 1013.1 0.6 17.2 25.6 37.6 98.6 88.9 304.3
08/05 10:20 7.7 91 7.38 6.4 4 4 1013.1 0.2 17.3 25.6 37.8 99.0 89.4 306.1
08/05 10:10 7.5 93 7.45 6.4 4 6 1013.1 0.2 17.4 25.8 38.2 100.1 90.6 310.3
08/05 10:00 7.3 93 7.35 6.3 4 4 1013.1 0.2 17.2 25.7 37.9 99.2 89.4 306.2
08/05 09:50 7.1 94 7.33 6.2 2 4 1013.1 0.2 17.2 25.7 37.9 99.2 89.4 306.0
08/05 09:40 6.8 95 7.27 6.1 4 4 1013.1 0.2 17.1 25.7 37.8 99.0 88.9 304.3
08/05 09:30 6.5 95 7.13 5.8 4 6 1013.1 0.2 16.8 25.6 37.3 97.8 87.3 298.7
08/05 09:20 6.3 95 7.04 5.6 4 6 1013.1 0 16.6 25.5 37.0 97.0 86.3 295.1
08/05 09:10 6.3 95 7.04 5.6 4 7 1013.1 0 16.6 25.5 37.0 97.0 86.3 295.1
08/05 09:00 6.2 95 6.99 5.5 4 6 1013.1 0 16.5 25.4 36.9 96.6 85.7 293.1
08/05 08:50 6.2 95 6.99 5.4 4 7 1013.1 0 16.5 25.4 36.9 96.6 85.7 293.1
08/05 08:40 6.1 95 6.94 5.4 6 9 1013.1 0 16.4 25.4 36.7 96.1 85.1 291.0
08/05 08:30 6.1 95 6.94 5.4 6 7 1013.1 0 16.4 25.4 36.7 96.1 85.1 291.0
08/05 08:20 6.1 95 6.94 5.4 4 6 1013.1 0 16.4 25.4 36.7 96.1 85.1 291.0
08/05 08:10 6 95 6.9 5.3 4 7 1013.1 0 16.3 25.3 36.6 95.8 84.7 289.5
08/05 08:00 5.9 95 6.85 5.2 6 7 1013.1 0 16.2 25.3 36.4 95.4 84.1 287.4
08/05 07:50 5.9 95 6.85 5.2 4 7 1013.1 0 16.2 25.3 36.4 95.4 84.1 287.4
08/05 07:40 5.8 96 6.88 5.2 2 4 1013.1 0 16.3 25.4 36.6 95.8 84.7 289.3
08/05 07:30 5.7 96 6.84 5.1 4 4 1013.1 0 16.2 25.3 36.5 95.5 84.2 287.7
08/05 07:20 5.7 95 6.76 5 2 4 1013.1 0 16.0 25.2 36.1 94.6 83.1 283.8
08/05 07:10 5.7 95 6.76 5 4 6 1013.1 0 16.0 25.2 36.1 94.6 83.1 283.8
08/05 07:00 5.6 95 6.72 4.8 2 4 1013.1 0 15.9 25.1 36.0 94.3 82.7 282.3
08/05 06:50 5.6 95 6.72 4.8 2 4 1013.1 0 15.9 25.1 36.0 94.3 82.7 282.3
08/05 06:40 5.5 95 6.68 4.7 2 4 1013.1 0 15.8 25.1 35.9 94.0 82.2 280.7
08/05 06:30 5.5 95 6.68 4.7 2 4 1013.1 0 15.8 25.1 35.9 94.0 82.2 280.7
08/05 06:20 5.5 95 6.68 4.7 2 4 1013.1 0 15.8 25.1 35.9 94.0 82.2 280.7
08/05 06:10 5.5 94 6.61 4.6 4 6 1013.1 0 15.7 25.0 35.6 93.2 81.3 277.3
08/05 06:00 5.4 95 6.63 4.6 4 4 1013.1 0 15.7 25.1 35.7 93.5 81.6 278.7
08/05 05:50 5.4 94 6.56 4.5 2 4 1013.1 0 15.6 24.9 35.4 92.8 80.7 275.3
08/05 05:40 5.3 95 6.59 4.5 2 2 1013.1 0 15.6 25.0 35.6 93.2 81.2 277.1
08/05 05:30 5.3 94 6.52 4.4 2 4 1013.1 0 15.5 24.9 35.3 92.4 80.2 273.7
08/05 05:20 5.3 94 6.52 4.4 4 6 1013.1 0 15.5 24.9 35.3 92.4 80.2 273.7
08/05 05:10 5.3 93 6.45 4.3 4 4 1013.1 0 15.3 24.8 35.0 91.7 79.3 270.4
08/05 05:00 5.2 93 6.41 4.2 4 6 1013.1 0 15.3 24.7 34.9 91.3 78.8 268.8
08/05 04:50 5.2 93 6.41 4.2 2 4 1013.1 0 15.3 24.7 34.9 91.3 78.8 268.8
08/05 04:40 5.2 93 6.41 4.1 4 6 1013.1 0 15.3 24.7 34.9 91.3 78.8 268.8
08/05 04:30 5.2 93 6.41 4.1 4 6 1013.1 0 15.3 24.7 34.9 91.3 78.8 268.8
08/05 04:20 5.1 93 6.37 4.1 4 4 1013.1 0 15.2 24.7 34.8 91.0 78.4 267.2
08/05 04:10 5.1 93 6.37 4 4 4 1013.1 0 15.2 24.7 34.8 91.0 78.4 267.2
08/05 04:00 5.1 93 6.37 4 2 4 1013.1 0 15.2 24.7 34.8 91.0 78.4 267.2
08/05 03:50 5.1 92 6.3 3.9 2 4 1013.1 0 15.0 24.6 34.5 90.2 77.4 263.9
08/05 03:40 5.1 92 6.3 3.9 4 4 1013.1 0 15.0 24.6 34.5 90.2 77.4 263.9
08/05 03:30 5.1 92 6.3 3.9 4 7 1013.1 0 15.0 24.6 34.5 90.2 77.4 263.9
08/05 03:20 5.1 91 6.23 3.8 6 7 1013.1 0 14.9 24.5 34.2 89.5 76.5 260.6
08/05 03:10 5.1 91 6.23 3.8 4 6 1013.1 0 14.9 24.5 34.2 89.5 76.5 260.6
08/05 03:00 5.1 90 6.16 3.6 4 6 1013.1 0 14.7 24.4 33.9 88.7 75.5 257.2
08/05 02:50 5.1 90 6.16 3.6 4 6 1013.1 0 14.7 24.4 33.9 88.7 75.5 257.2
08/05 02:40 5.1 89 6.09 3.5 4 7 1013.1 0 14.6 24.2 33.6 87.9 74.6 253.9
08/05 02:30 5.1 89 6.09 3.5 4 6 1013.1 0 14.6 24.2 33.6 87.9 74.6 253.9
08/05 02:20 5.1 89 6.09 3.4 4 7 1013.1 0 14.6 24.2 33.6 87.9 74.6 253.9
08/05 02:10 5.1 88 6.02 3.3 6 7 1013.1 0 14.4 24.1 33.4 87.2 73.7 250.6
08/05 02:00 5.1 88 6.02 3.3 6 7 1013.1 0 14.4 24.1 33.4 87.2 73.7 250.6
08/05 01:50 5.1 87 5.96 3.2 6 9 1013.1 0 14.3 24.0 33.1 86.5 72.8 247.8
08/05 01:40 5 88 5.98 3.2 6 6 1013.1 0 14.3 24.1 33.2 86.8 73.2 249.0
08/05 01:30 4.9 89 6.01 3.2 4 6 1013.1 0 14.4 24.2 33.4 87.3 73.7 250.8
08/05 01:20 4.9 89 6.01 3.2 6 7 1013.1 0 14.4 24.2 33.4 87.3 73.7 250.8
08/05 01:10 4.9 88 5.94 3.1 4 7 1013.1 0 14.3 24.0 33.1 86.5 72.8 247.5
08/05 01:00 4.9 88 5.94 3.1 4 9 1013.1 0 14.3 24.0 33.1 86.5 72.8 247.5
08/05 00:50 5 87 5.92 3 4 6 1013.1 0 14.2 24.0 33.0 86.2 72.4 246.2
08/05 00:40 5 87 5.92 3 4 7 1013.1 0 14.2 24.0 33.0 86.2 72.4 246.2
08/05 00:30 5.1 85 5.82 2.8 4 6 1013.1 0 14.0 23.8 32.5 85.0 71.0 241.2
08/05 00:10 5.2 83 5.72 2.5 4 6 1013.1 0 13.8 23.6 32.1 83.8 69.6 236.3
08/05 00:00 5.2 83 5.72 2.5 4 4 1013.1 0 13.8 23.6 32.1 83.8 69.6 236.3
07/05 23:50 5.2 82 5.65 2.4 4 6 1013.1 0 13.6 23.5 31.8 83.1 68.6 233.0
07/05 23:40 5.2 83 5.72 2.5 4 4 1013.1 0 13.8 23.6 32.1 83.8 69.6 236.3
07/05 23:30 5.2 81 5.58 2.3 4 7 1013.1 0 13.5 23.4 31.5 82.3 67.7 229.8
07/05 23:20 5.2 82 5.65 2.4 4 6 1013.1 0 13.6 23.5 31.8 83.1 68.6 233.0
07/05 23:10 5.2 80 5.51 2 4 6 1013.1 0 13.3 23.3 31.3 81.6 66.8 226.5
07/05 23:00 5.2 79 5.44 1.9 6 7 1013.1 0 13.2 23.2 31.0 80.8 65.9 223.3
07/05 22:50 5 80 5.44 1.9 7 9 1013.1 0 13.2 23.2 31.1 81.0 66.0 223.9
07/05 22:40 4.6 83 5.5 1.9 6 6 1013.1 0 13.3 23.4 31.5 82.1 67.2 227.8
07/05 22:30 4.5 84 5.53 2 2 4 1013.1 0 13.4 23.5 31.6 82.5 67.7 229.5
07/05 22:20 4.8 81 5.44 1.8 4 6 1013.1 0 13.2 23.3 31.1 81.2 66.2 224.4
07/05 22:10 5 80 5.44 1.8 4 6 1013.1 0 13.2 23.2 31.1 81.0 66.0 223.9
07/05 22:00 5 79 5.37 1.7 4 6 1013.1 0 13.0 23.1 30.8 80.3 65.1 220.7
07/05 21:50 5 80 5.44 1.8 4 6 1013.1 0 13.2 23.2 31.1 81.0 66.0 223.9
07/05 21:40 5 79 5.37 1.6 6 6 1013.1 0 13.0 23.1 30.8 80.3 65.1 220.7
07/05 21:30 5 78 5.3 1.5 6 9 1013.1 0 12.9 23.0 30.5 79.6 64.2 217.4
07/05 21:20 4.9 78 5.27 1.4 7 9 1013.1 0 12.8 23.0 30.4 79.3 63.9 216.3
07/05 21:10 4.8 79 5.3 1.5 7 9 1013.1 0 12.9 23.0 30.6 79.8 64.4 218.0
07/05 21:00 4.6 78 5.17 1.1 4 7 1013.1 0 12.6 22.9 30.1 78.6 62.8 212.6
07/05 20:50 4.5 78 5.13 1.1 4 6 1013.1 0 12.5 22.8 30.0 78.3 62.4 211.0
07/05 20:40 4.5 78 5.13 1.1 6 9 1013.1 0 12.5 22.8 30.0 78.3 62.4 211.0
07/05 20:30 4.5 78 5.13 1 6 7 1013.1 0 12.5 22.8 30.0 78.3 62.4 211.0
07/05 20:20 4.4 77 5.03 0.8 7 9 1013.1 0 12.3 22.7 29.7 77.3 61.2 206.7
07/05 20:10 4.1 80 5.12 0.9 7 11 1013.1 0 12.5 22.9 30.1 78.6 62.6 211.6
07/05 20:00 3.7 80 4.99 0.6 4 4 1013.1 0 12.3 22.8 29.8 77.6 61.2 206.7
07/05 19:50 3.6 79 4.89 0.3 4 4 1013.1 0 12.0 22.7 29.4 76.6 60.0 202.4
07/05 19:40 3.4 81 4.95 0.4 2 4 1013.1 0 12.2 22.8 29.7 77.4 60.9 205.6

Last Refresh: 08-May-2026 12:08:51

Bureau of Meteorology